sensor_id;sensor_type;location;lat;lon;timestamp;P1;durP1;ratioP1;P2;durP2;ratioP2
43809;SDS011;29440;48.208;11.162;2023-03-20T00:00:29;5.00;;;3.05;;
43809;SDS011;29440;48.208;11.162;2023-03-20T00:02:58;6.13;;;3.47;;
43809;SDS011;29440;48.208;11.162;2023-03-20T00:05:25;4.90;;;2.88;;
43809;SDS011;29440;48.208;11.162;2023-03-20T00:07:53;3.22;;;2.67;;
43809;SDS011;29440;48.208;11.162;2023-03-20T00:10:19;3.55;;;3.00;;
43809;SDS011;29440;48.208;11.162;2023-03-20T00:12:47;5.80;;;2.90;;
43809;SDS011;29440;48.208;11.162;2023-03-20T00:15:23;3.83;;;2.55;;
43809;SDS011;29440;48.208;11.162;2023-03-20T00:17:55;5.18;;;3.40;;
43809;SDS011;29440;48.208;11.162;2023-03-20T00:20:21;5.90;;;3.15;;
43809;SDS011;29440;48.208;11.162;2023-03-20T00:22:47;3.50;;;2.78;;
43809;SDS011;29440;48.208;11.162;2023-03-20T00:25:14;6.82;;;3.47;;
43809;SDS011;29440;48.208;11.162;2023-03-20T00:27:42;4.88;;;3.03;;
43809;SDS011;29440;48.208;11.162;2023-03-20T00:30:19;3.95;;;2.97;;
43809;SDS011;29440;48.208;11.162;2023-03-20T00:32:48;4.90;;;3.60;;
43809;SDS011;29440;48.208;11.162;2023-03-20T00:35:20;4.32;;;3.40;;
43809;SDS011;29440;48.208;11.162;2023-03-20T00:37:46;3.92;;;3.35;;
43809;SDS011;29440;48.208;11.162;2023-03-20T00:40:12;5.00;;;2.95;;
43809;SDS011;29440;48.208;11.162;2023-03-20T00:42:38;4.40;;;2.85;;
43809;SDS011;29440;48.208;11.162;2023-03-20T00:45:04;4.45;;;3.35;;
43809;SDS011;29440;48.208;11.162;2023-03-20T00:47:35;3.72;;;3.17;;
43809;SDS011;29440;48.208;11.162;2023-03-20T00:50:06;4.22;;;2.83;;
43809;SDS011;29440;48.208;11.162;2023-03-20T00:52:37;4.55;;;2.90;;
43809;SDS011;29440;48.208;11.162;2023-03-20T00:55:04;3.70;;;2.47;;
43809;SDS011;29440;48.208;11.162;2023-03-20T00:57:33;4.05;;;2.50;;
43809;SDS011;29440;48.208;11.162;2023-03-20T01:00:18;5.13;;;2.55;;
43809;SDS011;29440;48.208;11.162;2023-03-20T01:05:45;4.03;;;2.47;;
43809;SDS011;29440;48.208;11.162;2023-03-20T01:08:11;3.50;;;2.45;;
43809;SDS011;29440;48.208;11.162;2023-03-20T01:10:43;4.93;;;2.50;;
43809;SDS011;29440;48.208;11.162;2023-03-20T01:13:12;3.85;;;2.80;;
43809;SDS011;29440;48.208;11.162;2023-03-20T01:15:44;3.50;;;2.30;;
43809;SDS011;29440;48.208;11.162;2023-03-20T01:18:12;4.57;;;2.60;;
43809;SDS011;29440;48.208;11.162;2023-03-20T01:20:39;3.47;;;2.67;;
43809;SDS011;29440;48.208;11.162;2023-03-20T01:23:05;5.03;;;3.05;;
43809;SDS011;29440;48.208;11.162;2023-03-20T01:25:30;4.95;;;2.53;;
43809;SDS011;29440;48.208;11.162;2023-03-20T01:27:57;3.20;;;2.58;;
43809;SDS011;29440;48.208;11.162;2023-03-20T01:30:23;3.70;;;2.33;;
43809;SDS011;29440;48.208;11.162;2023-03-20T01:32:54;5.45;;;3.10;;
43809;SDS011;29440;48.208;11.162;2023-03-20T01:35:21;4.88;;;2.60;;
43809;SDS011;29440;48.208;11.162;2023-03-20T01:37:49;3.63;;;2.80;;
43809;SDS011;29440;48.208;11.162;2023-03-20T01:43:01;3.20;;;2.33;;
43809;SDS011;29440;48.208;11.162;2023-03-20T01:45:31;5.38;;;2.38;;
43809;SDS011;29440;48.208;11.162;2023-03-20T01:47:58;3.22;;;2.60;;
43809;SDS011;29440;48.208;11.162;2023-03-20T01:50:26;3.33;;;2.30;;
43809;SDS011;29440;48.208;11.162;2023-03-20T01:53:15;2.40;;;1.90;;
43809;SDS011;29440;48.208;11.162;2023-03-20T01:55:44;3.15;;;2.08;;
43809;SDS011;29440;48.208;11.162;2023-03-20T01:58:15;3.80;;;1.95;;
43809;SDS011;29440;48.208;11.162;2023-03-20T02:00:45;3.20;;;2.20;;
43809;SDS011;29440;48.208;11.162;2023-03-20T02:03:13;2.75;;;2.03;;
43809;SDS011;29440;48.208;11.162;2023-03-20T02:05:41;3.72;;;1.33;;
43809;SDS011;29440;48.208;11.162;2023-03-20T02:10:53;2.83;;;1.30;;
43809;SDS011;29440;48.208;11.162;2023-03-20T02:13:20;5.03;;;1.85;;
43809;SDS011;29440;48.208;11.162;2023-03-20T02:15:58;1.92;;;1.23;;
43809;SDS011;29440;48.208;11.162;2023-03-20T02:18:25;2.65;;;1.20;;
43809;SDS011;29440;48.208;11.162;2023-03-20T02:21:01;2.08;;;1.35;;
43809;SDS011;29440;48.208;11.162;2023-03-20T02:41:05;1.25;;;0.90;;
43809;SDS011;29440;48.208;11.162;2023-03-20T02:49:17;2.42;;;1.05;;
43809;SDS011;29440;48.208;11.162;2023-03-20T02:54:47;1.35;;;0.80;;
43809;SDS011;29440;48.208;11.162;2023-03-20T02:57:35;1.83;;;1.10;;
43809;SDS011;29440;48.208;11.162;2023-03-20T03:00:13;2.05;;;1.00;;
43809;SDS011;29440;48.208;11.162;2023-03-20T03:02:53;1.73;;;1.05;;
43809;SDS011;29440;48.208;11.162;2023-03-20T03:05:35;3.47;;;1.00;;
43809;SDS011;29440;48.208;11.162;2023-03-20T03:08:05;1.60;;;0.90;;
43809;SDS011;29440;48.208;11.162;2023-03-20T03:10:38;1.92;;;0.95;;
43809;SDS011;29440;48.208;11.162;2023-03-20T03:13:10;1.70;;;0.90;;
43809;SDS011;29440;48.208;11.162;2023-03-20T03:15:42;1.33;;;1.00;;
43809;SDS011;29440;48.208;11.162;2023-03-20T03:18:12;1.35;;;0.90;;
43809;SDS011;29440;48.208;11.162;2023-03-20T03:20:42;2.47;;;0.68;;
43809;SDS011;29440;48.208;11.162;2023-03-20T03:23:09;1.50;;;0.80;;
43809;SDS011;29440;48.208;11.162;2023-03-20T03:25:45;1.45;;;0.80;;
43809;SDS011;29440;48.208;11.162;2023-03-20T03:30:49;3.08;;;0.80;;
43809;SDS011;29440;48.208;11.162;2023-03-20T03:33:24;1.33;;;0.88;;
43809;SDS011;29440;48.208;11.162;2023-03-20T03:36:05;1.25;;;0.73;;
43809;SDS011;29440;48.208;11.162;2023-03-20T03:44:08;1.80;;;0.95;;
43809;SDS011;29440;48.208;11.162;2023-03-20T03:47:05;2.72;;;0.90;;
43809;SDS011;29440;48.208;11.162;2023-03-20T03:49:36;1.88;;;1.10;;
43809;SDS011;29440;48.208;11.162;2023-03-20T03:52:10;6.53;;;1.00;;
43809;SDS011;29440;48.208;11.162;2023-03-20T03:54:46;2.65;;;0.90;;
43809;SDS011;29440;48.208;11.162;2023-03-20T03:57:19;1.50;;;0.90;;
43809;SDS011;29440;48.208;11.162;2023-03-20T03:59:49;1.70;;;0.95;;
43809;SDS011;29440;48.208;11.162;2023-03-20T04:02:17;1.50;;;0.93;;
43809;SDS011;29440;48.208;11.162;2023-03-20T04:04:45;1.65;;;1.00;;
43809;SDS011;29440;48.208;11.162;2023-03-20T04:07:13;2.25;;;1.02;;
43809;SDS011;29440;48.208;11.162;2023-03-20T04:09:39;1.70;;;1.10;;
43809;SDS011;29440;48.208;11.162;2023-03-20T04:12:07;1.88;;;1.23;;
43809;SDS011;29440;48.208;11.162;2023-03-20T04:14:48;3.05;;;1.33;;
43809;SDS011;29440;48.208;11.162;2023-03-20T04:17:14;2.95;;;1.52;;
43809;SDS011;29440;48.208;11.162;2023-03-20T04:19:40;3.05;;;1.60;;
43809;SDS011;29440;48.208;11.162;2023-03-20T04:22:06;2.13;;;1.55;;
43809;SDS011;29440;48.208;11.162;2023-03-20T04:24:32;2.35;;;1.50;;
43809;SDS011;29440;48.208;11.162;2023-03-20T04:26:58;2.33;;;1.60;;
43809;SDS011;29440;48.208;11.162;2023-03-20T04:29:23;2.17;;;1.65;;
43809;SDS011;29440;48.208;11.162;2023-03-20T04:31:50;3.88;;;1.70;;
43809;SDS011;29440;48.208;11.162;2023-03-20T04:34:15;2.42;;;1.63;;
43809;SDS011;29440;48.208;11.162;2023-03-20T04:36:42;2.85;;;1.77;;
43809;SDS011;29440;48.208;11.162;2023-03-20T04:39:07;3.45;;;2.08;;
43809;SDS011;29440;48.208;11.162;2023-03-20T04:41:33;2.75;;;1.88;;
43809;SDS011;29440;48.208;11.162;2023-03-20T04:43:58;3.50;;;2.20;;
43809;SDS011;29440;48.208;11.162;2023-03-20T04:46:24;2.90;;;1.90;;
43809;SDS011;29440;48.208;11.162;2023-03-20T04:48:50;4.43;;;2.67;;
43809;SDS011;29440;48.208;11.162;2023-03-20T04:51:16;3.17;;;2.40;;
43809;SDS011;29440;48.208;11.162;2023-03-20T04:53:41;2.97;;;1.95;;
43809;SDS011;29440;48.208;11.162;2023-03-20T04:56:07;3.17;;;2.35;;
43809;SDS011;29440;48.208;11.162;2023-03-20T04:58:33;5.30;;;2.60;;
43809;SDS011;29440;48.208;11.162;2023-03-20T05:01:00;3.28;;;2.20;;
43809;SDS011;29440;48.208;11.162;2023-03-20T05:03:26;4.65;;;2.80;;
43809;SDS011;29440;48.208;11.162;2023-03-20T05:05:51;6.22;;;2.45;;
43809;SDS011;29440;48.208;11.162;2023-03-20T05:08:17;5.63;;;3.08;;
43809;SDS011;29440;48.208;11.162;2023-03-20T05:10:43;5.28;;;2.97;;
43809;SDS011;29440;48.208;11.162;2023-03-20T05:13:08;6.45;;;3.03;;
43809;SDS011;29440;48.208;11.162;2023-03-20T05:15:34;4.13;;;2.85;;
43809;SDS011;29440;48.208;11.162;2023-03-20T05:18:01;4.15;;;3.38;;
43809;SDS011;29440;48.208;11.162;2023-03-20T05:20:27;6.05;;;5.03;;
43809;SDS011;29440;48.208;11.162;2023-03-20T05:22:54;4.97;;;3.35;;
43809;SDS011;29440;48.208;11.162;2023-03-20T05:25:19;5.57;;;3.42;;
43809;SDS011;29440;48.208;11.162;2023-03-20T05:27:45;5.60;;;3.80;;
43809;SDS011;29440;48.208;11.162;2023-03-20T05:30:12;6.55;;;3.80;;
43809;SDS011;29440;48.208;11.162;2023-03-20T05:32:38;5.38;;;3.58;;
43809;SDS011;29440;48.208;11.162;2023-03-20T05:35:04;4.90;;;3.53;;
43809;SDS011;29440;48.208;11.162;2023-03-20T05:37:31;5.15;;;3.72;;
43809;SDS011;29440;48.208;11.162;2023-03-20T05:39:56;4.45;;;3.58;;
43809;SDS011;29440;48.208;11.162;2023-03-20T05:42:22;7.53;;;4.07;;
43809;SDS011;29440;48.208;11.162;2023-03-20T05:44:48;6.53;;;4.40;;
43809;SDS011;29440;48.208;11.162;2023-03-20T05:47:14;5.40;;;3.25;;
43809;SDS011;29440;48.208;11.162;2023-03-20T05:49:39;5.90;;;3.80;;
43809;SDS011;29440;48.208;11.162;2023-03-20T05:52:05;6.85;;;3.70;;
43809;SDS011;29440;48.208;11.162;2023-03-20T05:54:31;5.80;;;3.67;;
43809;SDS011;29440;48.208;11.162;2023-03-20T05:56:57;6.22;;;4.07;;
43809;SDS011;29440;48.208;11.162;2023-03-20T05:59:23;6.35;;;4.50;;
43809;SDS011;29440;48.208;11.162;2023-03-20T06:01:48;6.22;;;3.88;;
43809;SDS011;29440;48.208;11.162;2023-03-20T06:04:14;7.53;;;4.32;;
43809;SDS011;29440;48.208;11.162;2023-03-20T06:06:40;5.22;;;3.63;;
43809;SDS011;29440;48.208;11.162;2023-03-20T06:09:05;6.47;;;4.20;;
43809;SDS011;29440;48.208;11.162;2023-03-20T06:11:31;4.75;;;3.80;;
43809;SDS011;29440;48.208;11.162;2023-03-20T06:13:57;5.93;;;3.88;;
43809;SDS011;29440;48.208;11.162;2023-03-20T06:16:23;5.72;;;4.38;;
43809;SDS011;29440;48.208;11.162;2023-03-20T06:18:50;5.68;;;4.20;;
43809;SDS011;29440;48.208;11.162;2023-03-20T06:21:16;5.97;;;4.40;;
43809;SDS011;29440;48.208;11.162;2023-03-20T06:23:42;6.90;;;4.28;;
43809;SDS011;29440;48.208;11.162;2023-03-20T06:26:08;6.25;;;4.15;;
43809;SDS011;29440;48.208;11.162;2023-03-20T06:28:35;8.13;;;4.82;;
43809;SDS011;29440;48.208;11.162;2023-03-20T06:31:01;5.55;;;3.95;;
43809;SDS011;29440;48.208;11.162;2023-03-20T06:33:27;7.50;;;4.47;;
43809;SDS011;29440;48.208;11.162;2023-03-20T06:35:52;7.55;;;4.43;;
43809;SDS011;29440;48.208;11.162;2023-03-20T06:38:18;5.38;;;3.90;;
43809;SDS011;29440;48.208;11.162;2023-03-20T06:40:44;6.55;;;4.45;;
43809;SDS011;29440;48.208;11.162;2023-03-20T06:43:09;6.50;;;4.30;;
43809;SDS011;29440;48.208;11.162;2023-03-20T06:45:36;7.00;;;4.85;;
43809;SDS011;29440;48.208;11.162;2023-03-20T06:48:06;7.18;;;4.45;;
43809;SDS011;29440;48.208;11.162;2023-03-20T06:50:33;8.30;;;4.63;;
43809;SDS011;29440;48.208;11.162;2023-03-20T06:52:58;6.28;;;4.75;;
43809;SDS011;29440;48.208;11.162;2023-03-20T06:55:24;6.32;;;4.18;;
43809;SDS011;29440;48.208;11.162;2023-03-20T06:57:50;8.13;;;4.53;;
43809;SDS011;29440;48.208;11.162;2023-03-20T07:00:16;6.47;;;4.85;;
43809;SDS011;29440;48.208;11.162;2023-03-20T07:02:43;9.88;;;4.45;;
43809;SDS011;29440;48.208;11.162;2023-03-20T07:05:08;7.38;;;4.57;;
43809;SDS011;29440;48.208;11.162;2023-03-20T07:07:34;6.25;;;4.25;;
43809;SDS011;29440;48.208;11.162;2023-03-20T07:10:00;5.20;;;4.07;;
43809;SDS011;29440;48.208;11.162;2023-03-20T07:12:26;5.57;;;3.75;;
43809;SDS011;29440;48.208;11.162;2023-03-20T07:14:53;4.80;;;3.70;;
43809;SDS011;29440;48.208;11.162;2023-03-20T07:17:18;6.35;;;3.83;;
43809;SDS011;29440;48.208;11.162;2023-03-20T07:19:45;5.13;;;3.90;;
43809;SDS011;29440;48.208;11.162;2023-03-20T07:22:16;6.03;;;3.80;;
43809;SDS011;29440;48.208;11.162;2023-03-20T07:24:48;5.95;;;3.85;;
43809;SDS011;29440;48.208;11.162;2023-03-20T07:27:14;6.25;;;3.80;;
43809;SDS011;29440;48.208;11.162;2023-03-20T07:29:40;8.35;;;4.30;;
43809;SDS011;29440;48.208;11.162;2023-03-20T07:32:06;6.30;;;4.45;;
43809;SDS011;29440;48.208;11.162;2023-03-20T07:34:32;8.10;;;4.05;;
43809;SDS011;29440;48.208;11.162;2023-03-20T07:36:58;6.25;;;4.10;;
43809;SDS011;29440;48.208;11.162;2023-03-20T07:39:25;6.35;;;4.38;;
43809;SDS011;29440;48.208;11.162;2023-03-20T07:41:51;4.93;;;3.67;;
43809;SDS011;29440;48.208;11.162;2023-03-20T07:44:17;4.43;;;3.15;;
43809;SDS011;29440;48.208;11.162;2023-03-20T07:46:43;3.25;;;2.25;;
43809;SDS011;29440;48.208;11.162;2023-03-20T07:49:14;2.88;;;2.30;;
43809;SDS011;29440;48.208;11.162;2023-03-20T07:51:44;5.18;;;2.25;;
43809;SDS011;29440;48.208;11.162;2023-03-20T07:54:12;3.45;;;2.45;;
43809;SDS011;29440;48.208;11.162;2023-03-20T07:56:39;4.82;;;2.47;;
43809;SDS011;29440;48.208;11.162;2023-03-20T07:59:05;4.15;;;3.42;;
43809;SDS011;29440;48.208;11.162;2023-03-20T08:01:31;5.35;;;2.97;;
43809;SDS011;29440;48.208;11.162;2023-03-20T08:03:57;2.85;;;2.20;;
43809;SDS011;29440;48.208;11.162;2023-03-20T08:06:23;3.42;;;2.42;;
43809;SDS011;29440;48.208;11.162;2023-03-20T08:08:49;3.50;;;2.47;;
43809;SDS011;29440;48.208;11.162;2023-03-20T08:11:16;3.53;;;2.17;;
43809;SDS011;29440;48.208;11.162;2023-03-20T08:13:43;2.50;;;1.92;;
43809;SDS011;29440;48.208;11.162;2023-03-20T08:16:10;3.78;;;2.33;;
43809;SDS011;29440;48.208;11.162;2023-03-20T08:18:36;2.78;;;2.33;;
43809;SDS011;29440;48.208;11.162;2023-03-20T08:21:02;4.45;;;2.88;;
43809;SDS011;29440;48.208;11.162;2023-03-20T08:23:29;3.33;;;2.17;;
43809;SDS011;29440;48.208;11.162;2023-03-20T08:25:54;2.38;;;1.48;;
43809;SDS011;29440;48.208;11.162;2023-03-20T08:28:21;2.42;;;1.83;;
43809;SDS011;29440;48.208;11.162;2023-03-20T08:30:48;2.67;;;2.03;;
43809;SDS011;29440;48.208;11.162;2023-03-20T08:33:14;2.60;;;2.15;;
43809;SDS011;29440;48.208;11.162;2023-03-20T08:35:42;4.30;;;1.95;;
43809;SDS011;29440;48.208;11.162;2023-03-20T08:38:09;2.85;;;1.83;;
43809;SDS011;29440;48.208;11.162;2023-03-20T08:40:39;2.28;;;1.60;;
43809;SDS011;29440;48.208;11.162;2023-03-20T08:43:06;5.40;;;1.42;;
43809;SDS011;29440;48.208;11.162;2023-03-20T08:45:32;2.33;;;1.70;;
43809;SDS011;29440;48.208;11.162;2023-03-20T08:47:58;3.28;;;1.65;;
43809;SDS011;29440;48.208;11.162;2023-03-20T08:50:24;1.80;;;1.38;;
43809;SDS011;29440;48.208;11.162;2023-03-20T08:52:51;1.70;;;1.23;;
43809;SDS011;29440;48.208;11.162;2023-03-20T08:55:17;2.67;;;1.33;;
43809;SDS011;29440;48.208;11.162;2023-03-20T08:57:44;3.28;;;1.85;;
43809;SDS011;29440;48.208;11.162;2023-03-20T09:00:12;3.42;;;1.10;;
43809;SDS011;29440;48.208;11.162;2023-03-20T09:02:39;2.03;;;1.17;;
43809;SDS011;29440;48.208;11.162;2023-03-20T09:05:06;1.35;;;0.70;;
43809;SDS011;29440;48.208;11.162;2023-03-20T09:10:03;1.08;;;0.63;;
43809;SDS011;29440;48.208;11.162;2023-03-20T09:12:29;1.27;;;0.80;;
43809;SDS011;29440;48.208;11.162;2023-03-20T09:14:57;1.20;;;0.63;;
43809;SDS011;29440;48.208;11.162;2023-03-20T09:17:23;2.65;;;0.60;;
43809;SDS011;29440;48.208;11.162;2023-03-20T09:19:49;1.40;;;0.60;;
43809;SDS011;29440;48.208;11.162;2023-03-20T09:22:15;1.45;;;0.60;;
43809;SDS011;29440;48.208;11.162;2023-03-20T09:24:44;0.98;;;0.55;;
43809;SDS011;29440;48.208;11.162;2023-03-20T09:27:10;1.58;;;0.85;;
43809;SDS011;29440;48.208;11.162;2023-03-20T09:29:40;1.33;;;0.70;;
43809;SDS011;29440;48.208;11.162;2023-03-20T09:32:06;2.13;;;0.80;;
43809;SDS011;29440;48.208;11.162;2023-03-20T09:34:34;1.90;;;0.77;;
43809;SDS011;29440;48.208;11.162;2023-03-20T09:37:00;1.33;;;0.80;;
43809;SDS011;29440;48.208;11.162;2023-03-20T09:39:27;1.40;;;0.90;;
43809;SDS011;29440;48.208;11.162;2023-03-20T09:41:54;1.50;;;0.90;;
43809;SDS011;29440;48.208;11.162;2023-03-20T09:44:44;2.78;;;1.40;;
43809;SDS011;29440;48.208;11.162;2023-03-20T09:55:37;1.50;;;0.63;;
43809;SDS011;29440;48.208;11.162;2023-03-20T09:58:20;0.93;;;0.70;;
43809;SDS011;29440;48.208;11.162;2023-03-20T10:01:06;2.03;;;0.70;;
43809;SDS011;29440;48.208;11.162;2023-03-20T10:03:41;0.93;;;0.60;;
43809;SDS011;29440;48.208;11.162;2023-03-20T10:06:14;2.70;;;0.73;;
43809;SDS011;29440;48.208;11.162;2023-03-20T10:08:42;1.90;;;0.70;;
43809;SDS011;29440;48.208;11.162;2023-03-20T10:19:22;1.92;;;0.70;;
43809;SDS011;29440;48.208;11.162;2023-03-20T10:22:01;0.77;;;0.60;;
43809;SDS011;29440;48.208;11.162;2023-03-20T10:24:38;0.90;;;0.50;;
43809;SDS011;29440;48.208;11.162;2023-03-20T10:27:14;1.33;;;0.60;;
43809;SDS011;29440;48.208;11.162;2023-03-20T10:29:50;0.95;;;0.50;;
43809;SDS011;29440;48.208;11.162;2023-03-20T10:32:32;0.85;;;0.50;;
43809;SDS011;29440;48.208;11.162;2023-03-20T10:40:25;0.87;;;0.60;;
43809;SDS011;29440;48.208;11.162;2023-03-20T10:42:52;1.15;;;0.50;;
43809;SDS011;29440;48.208;11.162;2023-03-20T10:47:54;1.07;;;0.70;;
43809;SDS011;29440;48.208;11.162;2023-03-20T10:50:27;1.55;;;0.75;;
43809;SDS011;29440;48.208;11.162;2023-03-20T10:52:57;1.55;;;0.63;;
43809;SDS011;29440;48.208;11.162;2023-03-20T10:55:26;1.58;;;0.80;;
43809;SDS011;29440;48.208;11.162;2023-03-20T10:58:08;2.78;;;0.70;;
43809;SDS011;29440;48.208;11.162;2023-03-20T11:00:43;0.95;;;0.65;;
43809;SDS011;29440;48.208;11.162;2023-03-20T11:03:15;1.25;;;0.52;;
43809;SDS011;29440;48.208;11.162;2023-03-20T11:05:47;1.02;;;0.85;;
43809;SDS011;29440;48.208;11.162;2023-03-20T11:08:21;0.70;;;0.50;;
43809;SDS011;29440;48.208;11.162;2023-03-20T11:10:56;3.30;;;0.73;;
43809;SDS011;29440;48.208;11.162;2023-03-20T11:13:30;1.08;;;0.68;;
43809;SDS011;29440;48.208;11.162;2023-03-20T11:16:15;1.23;;;0.70;;
43809;SDS011;29440;48.208;11.162;2023-03-20T11:18:44;4.82;;;1.00;;
43809;SDS011;29440;48.208;11.162;2023-03-20T11:21:16;1.23;;;0.80;;
43809;SDS011;29440;48.208;11.162;2023-03-20T11:23:52;2.30;;;0.80;;
43809;SDS011;29440;48.208;11.162;2023-03-20T11:26:27;1.00;;;0.60;;
43809;SDS011;29440;48.208;11.162;2023-03-20T11:29:00;1.10;;;0.50;;
43809;SDS011;29440;48.208;11.162;2023-03-20T11:31:35;0.90;;;0.60;;
43809;SDS011;29440;48.208;11.162;2023-03-20T11:36:28;2.05;;;0.80;;
43809;SDS011;29440;48.208;11.162;2023-03-20T11:38:58;1.25;;;0.80;;
43809;SDS011;29440;48.208;11.162;2023-03-20T11:44:23;0.77;;;0.40;;
43809;SDS011;29440;48.208;11.162;2023-03-20T11:46:54;1.20;;;0.50;;
43809;SDS011;29440;48.208;11.162;2023-03-20T11:49:44;1.35;;;0.63;;
43809;SDS011;29440;48.208;11.162;2023-03-20T11:52:28;1.25;;;0.60;;
43809;SDS011;29440;48.208;11.162;2023-03-20T11:54:57;1.05;;;0.60;;
43809;SDS011;29440;48.208;11.162;2023-03-20T11:57:32;3.83;;;0.85;;
43809;SDS011;29440;48.208;11.162;2023-03-20T12:00:04;1.80;;;1.17;;
43809;SDS011;29440;48.208;11.162;2023-03-20T12:02:51;1.60;;;0.70;;
43809;SDS011;29440;48.208;11.162;2023-03-20T12:05:27;1.38;;;0.50;;
43809;SDS011;29440;48.208;11.162;2023-03-20T12:07:55;0.90;;;0.50;;
43809;SDS011;29440;48.208;11.162;2023-03-20T12:10:23;3.75;;;0.75;;
43809;SDS011;29440;48.208;11.162;2023-03-20T12:12:56;0.73;;;0.50;;
43809;SDS011;29440;48.208;11.162;2023-03-20T12:15:32;0.77;;;0.55;;
43809;SDS011;29440;48.208;11.162;2023-03-20T12:18:11;1.75;;;0.50;;
43809;SDS011;29440;48.208;11.162;2023-03-20T12:21:06;0.88;;;0.60;;
43809;SDS011;29440;48.208;11.162;2023-03-20T12:23:43;0.47;;;0.40;;
43809;SDS011;29440;48.208;11.162;2023-03-20T12:26:17;1.20;;;0.57;;
43809;SDS011;29440;48.208;11.162;2023-03-20T12:28:53;1.40;;;0.40;;
43809;SDS011;29440;48.208;11.162;2023-03-20T12:31:43;1.42;;;0.70;;
43809;SDS011;29440;48.208;11.162;2023-03-20T12:34:17;0.90;;;0.50;;
43809;SDS011;29440;48.208;11.162;2023-03-20T12:36:53;1.48;;;0.45;;
43809;SDS011;29440;48.208;11.162;2023-03-20T12:39:27;0.85;;;0.40;;
43809;SDS011;29440;48.208;11.162;2023-03-20T12:42:07;1.25;;;0.60;;
43809;SDS011;29440;48.208;11.162;2023-03-20T12:54:07;1.63;;;0.70;;
43809;SDS011;29440;48.208;11.162;2023-03-20T12:56:46;1.02;;;0.50;;
43809;SDS011;29440;48.208;11.162;2023-03-20T12:59:34;0.95;;;0.52;;
43809;SDS011;29440;48.208;11.162;2023-03-20T13:02:13;1.63;;;0.80;;
43809;SDS011;29440;48.208;11.162;2023-03-20T13:05:45;1.33;;;0.50;;
43809;SDS011;29440;48.208;11.162;2023-03-20T13:10:41;1.92;;;0.60;;
43809;SDS011;29440;48.208;11.162;2023-03-20T13:21:24;1.42;;;0.60;;
43809;SDS011;29440;48.208;11.162;2023-03-20T13:37:17;1.08;;;0.60;;
43809;SDS011;29440;48.208;11.162;2023-03-20T13:39:57;0.98;;;0.60;;
43809;SDS011;29440;48.208;11.162;2023-03-20T13:42:49;2.10;;;0.60;;
43809;SDS011;29440;48.208;11.162;2023-03-20T13:48:04;1.10;;;0.98;;
43809;SDS011;29440;48.208;11.162;2023-03-20T14:02:26;1.08;;;0.45;;
43809;SDS011;29440;48.208;11.162;2023-03-20T14:05:03;0.50;;;0.30;;
43809;SDS011;29440;48.208;11.162;2023-03-20T14:07:40;0.90;;;0.40;;
43809;SDS011;29440;48.208;11.162;2023-03-20T14:15:27;0.75;;;0.30;;
43809;SDS011;29440;48.208;11.162;2023-03-20T14:17:57;0.40;;;0.40;;
43809;SDS011;29440;48.208;11.162;2023-03-20T14:20:28;1.48;;;0.30;;
43809;SDS011;29440;48.208;11.162;2023-03-20T14:26:19;0.40;;;0.30;;
43809;SDS011;29440;48.208;11.162;2023-03-20T14:28:52;0.50;;;0.30;;
43809;SDS011;29440;48.208;11.162;2023-03-20T14:31:30;0.35;;;0.30;;
43809;SDS011;29440;48.208;11.162;2023-03-20T14:42:28;0.68;;;0.30;;
43809;SDS011;29440;48.208;11.162;2023-03-20T14:54:18;0.50;;;0.30;;
43809;SDS011;29440;48.208;11.162;2023-03-20T14:56:45;0.35;;;0.30;;
43809;SDS011;29440;48.208;11.162;2023-03-20T14:59:15;0.30;;;0.30;;
43809;SDS011;29440;48.208;11.162;2023-03-20T15:01:43;0.75;;;0.30;;
43809;SDS011;29440;48.208;11.162;2023-03-20T15:07:14;0.50;;;0.30;;
43809;SDS011;29440;48.208;11.162;2023-03-20T15:10:00;0.30;;;0.30;;
43809;SDS011;29440;48.208;11.162;2023-03-20T15:12:29;0.50;;;0.40;;
43809;SDS011;29440;48.208;11.162;2023-03-20T15:15:00;0.47;;;0.30;;
43809;SDS011;29440;48.208;11.162;2023-03-20T15:20:35;0.50;;;0.40;;
43809;SDS011;29440;48.208;11.162;2023-03-20T15:23:01;2.10;;;0.50;;
43809;SDS011;29440;48.208;11.162;2023-03-20T15:25:31;0.80;;;0.40;;
43809;SDS011;29440;48.208;11.162;2023-03-20T15:30:56;0.60;;;0.40;;
43809;SDS011;29440;48.208;11.162;2023-03-20T15:33:43;2.50;;;0.60;;
43809;SDS011;29440;48.208;11.162;2023-03-20T15:36:16;0.98;;;0.43;;
43809;SDS011;29440;48.208;11.162;2023-03-20T15:38:51;1.25;;;0.50;;
43809;SDS011;29440;48.208;11.162;2023-03-20T15:44:23;1.15;;;0.50;;
43809;SDS011;29440;48.208;11.162;2023-03-20T15:46:56;1.35;;;0.40;;
43809;SDS011;29440;48.208;11.162;2023-03-20T15:49:22;0.80;;;0.50;;
43809;SDS011;29440;48.208;11.162;2023-03-20T15:51:49;1.00;;;0.40;;
43809;SDS011;29440;48.208;11.162;2023-03-20T15:54:16;0.90;;;0.50;;
43809;SDS011;29440;48.208;11.162;2023-03-20T15:56:44;2.92;;;0.40;;
43809;SDS011;29440;48.208;11.162;2023-03-20T15:59:15;1.65;;;0.47;;
43809;SDS011;29440;48.208;11.162;2023-03-20T16:01:44;0.82;;;0.50;;
43809;SDS011;29440;48.208;11.162;2023-03-20T16:04:12;2.00;;;0.57;;
43809;SDS011;29440;48.208;11.162;2023-03-20T16:06:47;1.38;;;0.57;;
43809;SDS011;29440;48.208;11.162;2023-03-20T16:09:16;1.48;;;0.75;;
43809;SDS011;29440;48.208;11.162;2023-03-20T16:11:43;1.13;;;0.70;;
43809;SDS011;29440;48.208;11.162;2023-03-20T16:14:14;5.35;;;0.60;;
43809;SDS011;29440;48.208;11.162;2023-03-20T16:16:42;0.75;;;0.60;;
43809;SDS011;29440;48.208;11.162;2023-03-20T16:19:11;0.98;;;0.60;;
43809;SDS011;29440;48.208;11.162;2023-03-20T16:21:39;1.17;;;0.60;;
43809;SDS011;29440;48.208;11.162;2023-03-20T16:24:46;0.90;;;0.65;;
43809;SDS011;29440;48.208;11.162;2023-03-20T16:27:05;1.20;;;0.60;;
43809;SDS011;29440;48.208;11.162;2023-03-20T16:29:33;1.55;;;0.60;;
43809;SDS011;29440;48.208;11.162;2023-03-20T16:32:06;2.08;;;0.90;;
43809;SDS011;29440;48.208;11.162;2023-03-20T16:34:39;1.20;;;0.73;;
43809;SDS011;29440;48.208;11.162;2023-03-20T16:37:21;1.33;;;0.70;;
43809;SDS011;29440;48.208;11.162;2023-03-20T16:42:36;2.13;;;0.70;;
43809;SDS011;29440;48.208;11.162;2023-03-20T16:45:03;1.40;;;0.68;;
43809;SDS011;29440;48.208;11.162;2023-03-20T16:47:34;1.40;;;0.60;;
43809;SDS011;29440;48.208;11.162;2023-03-20T16:50:04;1.60;;;0.60;;
43809;SDS011;29440;48.208;11.162;2023-03-20T16:53:30;1.05;;;0.60;;
43809;SDS011;29440;48.208;11.162;2023-03-20T16:55:44;1.25;;;0.60;;
43809;SDS011;29440;48.208;11.162;2023-03-20T16:58:22;0.82;;;0.50;;
43809;SDS011;29440;48.208;11.162;2023-03-20T17:01:01;0.70;;;0.50;;
43809;SDS011;29440;48.208;11.162;2023-03-20T17:03:34;1.35;;;0.50;;
43809;SDS011;29440;48.208;11.162;2023-03-20T17:06:30;1.40;;;0.50;;
43809;SDS011;29440;48.208;11.162;2023-03-20T17:11:49;1.00;;;0.50;;
43809;SDS011;29440;48.208;11.162;2023-03-20T17:14:20;2.28;;;0.60;;
43809;SDS011;29440;48.208;11.162;2023-03-20T17:16:46;4.13;;;1.40;;
43809;SDS011;29440;48.208;11.162;2023-03-20T17:19:16;4.40;;;2.05;;
43809;SDS011;29440;48.208;11.162;2023-03-20T17:21:43;4.70;;;1.40;;
43809;SDS011;29440;48.208;11.162;2023-03-20T17:24:10;7.22;;;3.13;;
43809;SDS011;29440;48.208;11.162;2023-03-20T17:26:36;26.02;;;10.25;;
43809;SDS011;29440;48.208;11.162;2023-03-20T17:29:04;12.90;;;5.90;;
43809;SDS011;29440;48.208;11.162;2023-03-20T17:31:30;3.17;;;1.63;;
43809;SDS011;29440;48.208;11.162;2023-03-20T17:33:56;2.05;;;0.93;;
43809;SDS011;29440;48.208;11.162;2023-03-20T17:38:52;4.68;;;1.88;;
43809;SDS011;29440;48.208;11.162;2023-03-20T17:41:18;18.73;;;9.95;;